createdAt,value
2023-03-29T00:03:04.225Z,2.80
2023-03-29T00:05:57.628Z,4.00
2023-03-29T00:08:51.074Z,4.10
2023-03-29T00:11:41.897Z,3.50
2023-03-29T00:14:32.460Z,4.10
2023-03-29T00:17:23.223Z,4.50
2023-03-29T00:20:14.456Z,10.00
2023-03-29T00:23:05.055Z,3.70
2023-03-29T00:25:56.478Z,3.90
2023-03-29T00:28:47.491Z,3.60
2023-03-29T00:31:38.037Z,10.70
2023-03-29T00:34:31.027Z,3.90
2023-03-29T00:37:22.683Z,4.50
2023-03-29T00:40:15.484Z,4.70
2023-03-29T00:43:06.505Z,4.80
2023-03-29T00:45:57.220Z,4.50
2023-03-29T00:48:47.759Z,12.90
2023-03-29T00:51:38.927Z,2.30
2023-03-29T00:54:31.036Z,3.20
2023-03-29T00:57:21.701Z,4.20
2023-03-29T01:00:15.478Z,3.30
2023-03-29T01:03:09.194Z,3.70
2023-03-29T01:06:01.405Z,3.30
2023-03-29T01:08:54.087Z,9.80
2023-03-29T01:11:47.120Z,2.40
2023-03-29T01:14:39.576Z,2.40
2023-03-29T01:17:31.772Z,4.40
2023-03-29T01:20:24.934Z,5.40
2023-03-29T01:23:27.421Z,5.10
2023-03-29T01:26:20.547Z,13.50
2023-03-29T01:29:12.687Z,5.10
2023-03-29T01:32:06.086Z,5.60
2023-03-29T01:34:58.750Z,4.50
2023-03-29T01:37:51.754Z,4.10
2023-03-29T01:40:42.529Z,10.60
2023-03-29T01:43:34.861Z,4.00
2023-03-29T01:46:28.662Z,2.40
2023-03-29T01:49:23.685Z,2.70
2023-03-29T01:52:17.006Z,10.10
2023-03-29T01:55:13.132Z,2.90
2023-03-29T01:58:05.769Z,2.90
2023-03-29T02:00:56.573Z,3.20
2023-03-29T02:03:50.847Z,3.80
2023-03-29T02:06:41.511Z,3.80
2023-03-29T02:09:32.577Z,3.70
2023-03-29T02:12:24.254Z,4.40
2023-03-29T02:15:16.562Z,4.10
2023-03-29T02:18:07.600Z,4.20
2023-03-29T02:20:59.038Z,9.90
2023-03-29T02:23:50.054Z,4.50
2023-03-29T02:26:40.884Z,4.40
2023-03-29T02:29:31.689Z,3.80
2023-03-29T02:32:23.051Z,5.10
2023-03-29T02:35:15.301Z,4.90
2023-03-29T02:38:07.164Z,4.80
2023-03-29T02:40:58.101Z,4.80
2023-03-29T02:43:48.773Z,5.30
2023-03-29T02:46:39.898Z,4.70
2023-03-29T02:49:30.393Z,5.00
2023-03-29T02:52:22.982Z,10.80
2023-03-29T02:55:15.841Z,4.50
2023-03-29T02:58:08.539Z,10.60
2023-03-29T03:01:00.498Z,4.90
2023-03-29T03:03:52.209Z,4.70
2023-03-29T03:06:43.138Z,12.40
2023-03-29T03:09:34.365Z,5.20
2023-03-29T03:12:25.333Z,5.10
2023-03-29T03:15:16.191Z,5.60
2023-03-29T03:18:07.132Z,6.10
2023-03-29T03:21:02.006Z,13.30
2023-03-29T03:23:53.558Z,5.80
2023-03-29T03:26:46.458Z,13.10
2023-03-29T03:29:38.645Z,5.40
2023-03-29T03:36:02.897Z,4.40
2023-03-29T03:38:54.358Z,6.00
2023-03-29T03:41:44.974Z,6.10
2023-03-29T03:44:35.605Z,6.20
2023-03-29T03:47:38.498Z,6.90
2023-03-29T03:50:41.717Z,7.50
2023-03-29T03:53:32.499Z,7.60
2023-03-29T03:56:35.204Z,7.70
2023-03-29T03:59:28.836Z,18.30
2023-03-29T04:02:24.335Z,8.40
2023-03-29T04:05:15.069Z,7.80
2023-03-29T04:08:06.782Z,8.00
2023-03-29T04:11:20.175Z,10.60
2023-03-29T04:14:11.334Z,23.10
2023-03-29T04:17:22.314Z,8.60
2023-03-29T04:20:42.064Z,20.20
2023-03-29T04:23:33.786Z,10.60
2023-03-29T04:26:24.577Z,9.70
2023-03-29T04:29:20.971Z,11.30
2023-03-29T04:32:15.985Z,10.90
2023-03-29T04:35:28.943Z,29.40
2023-03-29T04:38:23.568Z,13.10
2023-03-29T04:41:15.368Z,10.60
2023-03-29T04:44:15.922Z,10.70
2023-03-29T04:47:06.547Z,24.10
2023-03-29T04:49:57.253Z,9.20
2023-03-29T04:53:01.031Z,8.50
2023-03-29T04:55:52.634Z,11.00
2023-03-29T04:58:55.969Z,23.00
2023-03-29T05:01:47.038Z,22.70
2023-03-29T05:04:37.924Z,25.10
2023-03-29T05:07:35.678Z,24.50
2023-03-29T05:10:26.497Z,26.70
2023-03-29T05:13:18.004Z,28.20
2023-03-29T05:16:11.388Z,28.80
2023-03-29T05:19:02.241Z,15.60
2023-03-29T05:21:53.190Z,16.40
2023-03-29T05:24:45.563Z,16.00
2023-03-29T05:27:40.453Z,30.30
2023-03-29T05:30:32.487Z,15.30
2023-03-29T05:33:39.091Z,12.60
2023-03-29T05:36:29.927Z,15.20
2023-03-29T05:39:21.159Z,14.10
2023-03-29T05:42:13.844Z,30.40
2023-03-29T05:45:14.976Z,31.60
2023-03-29T05:48:05.597Z,12.40
2023-03-29T05:50:56.429Z,13.10
2023-03-29T05:53:46.969Z,29.60
2023-03-29T05:56:37.764Z,11.30
2023-03-29T05:59:29.759Z,12.20
2023-03-29T06:02:20.366Z,24.10
2023-03-29T06:05:14.894Z,24.40
2023-03-29T06:08:22.380Z,21.70
2023-03-29T06:11:27.939Z,20.50
2023-03-29T06:14:33.873Z,19.80
2023-03-29T06:17:45.981Z,18.80
2023-03-29T06:20:36.642Z,17.60
2023-03-29T06:23:33.000Z,16.20
2023-03-29T06:26:24.072Z,15.60
2023-03-29T06:29:15.000Z,14.10
2023-03-29T06:32:05.605Z,13.90
2023-03-29T06:35:15.073Z,13.60
2023-03-29T06:38:12.543Z,13.00
2023-03-29T06:41:29.582Z,12.30
2023-03-29T06:44:40.193Z,11.00
2023-03-29T06:47:36.149Z,11.00
2023-03-29T06:50:27.188Z,11.20
2023-03-29T06:53:28.725Z,11.60
2023-03-29T06:56:23.942Z,11.40
2023-03-29T06:59:24.414Z,12.00
2023-03-29T07:02:37.756Z,11.60
2023-03-29T07:05:36.348Z,11.20
2023-03-29T07:08:31.554Z,10.80
2023-03-29T07:11:25.656Z,10.20
2023-03-29T07:14:19.767Z,10.50
2023-03-29T07:17:10.458Z,11.40
2023-03-29T07:20:08.368Z,10.60
2023-03-29T07:23:09.632Z,10.00
2023-03-29T07:26:01.489Z,10.00
2023-03-29T07:28:53.492Z,9.30
2023-03-29T07:31:46.109Z,9.30
2023-03-29T07:34:59.661Z,9.00
2023-03-29T07:37:58.525Z,9.90
2023-03-29T07:40:49.687Z,9.50
2023-03-29T07:46:48.434Z,5.50
2023-03-29T07:49:39.566Z,9.30
2023-03-29T07:52:30.434Z,9.10
2023-03-29T07:55:22.300Z,8.80
2023-03-29T07:58:25.609Z,9.00
2023-03-29T08:01:18.903Z,9.00
2023-03-29T08:04:30.519Z,8.70
2023-03-29T08:07:39.640Z,8.00
2023-03-29T08:10:40.541Z,7.40
2023-03-29T08:13:51.521Z,5.30
2023-03-29T08:16:52.583Z,6.10
2023-03-29T08:19:51.180Z,6.20
2023-03-29T08:22:48.854Z,4.60
2023-03-29T08:26:16.084Z,5.60
2023-03-29T08:29:08.537Z,4.80
2023-03-29T08:32:08.899Z,4.10
2023-03-29T08:34:59.588Z,4.00
2023-03-29T08:37:56.010Z,3.70
2023-03-29T08:40:50.699Z,4.70
2023-03-29T08:43:56.447Z,4.80
2023-03-29T08:47:05.341Z,4.50
2023-03-29T08:50:00.370Z,4.70
2023-03-29T08:52:58.606Z,3.60
2023-03-29T08:56:16.534Z,3.50
2023-03-29T08:59:15.899Z,2.90
2023-03-29T09:02:07.175Z,2.60
2023-03-29T09:05:01.814Z,2.30
2023-03-29T09:08:03.144Z,2.70
2023-03-29T09:11:03.776Z,2.50
2023-03-29T09:13:58.998Z,1.70
2023-03-29T09:16:52.622Z,2.50
2023-03-29T09:19:46.142Z,1.90
2023-03-29T09:22:41.166Z,2.40
2023-03-29T09:25:53.400Z,2.30
2023-03-29T09:28:48.792Z,2.60
2023-03-29T09:31:39.553Z,2.90
2023-03-29T09:34:31.927Z,2.70
2023-03-29T09:37:29.942Z,2.60
2023-03-29T09:40:21.823Z,2.80
2023-03-29T09:43:22.983Z,2.70
2023-03-29T09:46:16.892Z,2.70
2023-03-29T09:49:17.143Z,3.40
2023-03-29T09:52:10.953Z,3.20
2023-03-29T09:55:02.092Z,3.50
2023-03-29T09:58:14.332Z,2.50
2023-03-29T10:01:10.456Z,2.40
2023-03-29T10:04:02.121Z,2.40
2023-03-29T10:06:53.218Z,2.70
2023-03-29T10:09:44.259Z,2.60
2023-03-29T10:12:39.953Z,2.90
2023-03-29T10:15:31.616Z,2.80
2023-03-29T10:18:22.083Z,3.00
2023-03-29T10:21:15.578Z,2.90
2023-03-29T10:24:06.719Z,2.40
2023-03-29T10:26:58.702Z,3.40
2023-03-29T10:29:49.052Z,2.90
2023-03-29T10:32:39.856Z,3.10
2023-03-29T10:35:33.890Z,3.00
2023-03-29T10:38:27.995Z,2.90
2023-03-29T10:41:18.677Z,2.90
2023-03-29T10:44:11.239Z,3.20
2023-03-29T10:47:16.160Z,2.70
2023-03-29T10:50:07.929Z,2.50
2023-03-29T10:52:58.350Z,2.40
2023-03-29T10:55:51.054Z,2.70
2023-03-29T10:58:48.812Z,2.80
2023-03-29T11:01:43.576Z,3.20
2023-03-29T11:04:37.758Z,3.20
2023-03-29T11:07:33.462Z,3.50
2023-03-29T11:10:32.365Z,3.20
2023-03-29T11:13:25.803Z,2.90
2023-03-29T11:16:22.758Z,2.80
2023-03-29T11:19:25.204Z,2.90
2023-03-29T11:22:18.173Z,2.30
2023-03-29T11:25:15.689Z,2.60
2023-03-29T11:28:10.089Z,2.80
2023-03-29T11:31:03.517Z,2.80
2023-03-29T11:34:01.727Z,3.00
2023-03-29T11:36:54.113Z,2.70
2023-03-29T11:39:47.552Z,2.60
2023-03-29T11:42:40.005Z,3.80
2023-03-29T11:45:34.228Z,2.10
2023-03-29T11:48:26.866Z,2.70
2023-03-29T11:51:19.723Z,2.40
2023-03-29T11:54:16.577Z,2.40
2023-03-29T11:57:08.784Z,2.30
2023-03-29T12:00:00.488Z,2.50
2023-03-29T12:02:53.274Z,2.80
2023-03-29T12:05:45.431Z,3.20
2023-03-29T12:08:36.331Z,3.30
2023-03-29T12:11:30.183Z,2.80
2023-03-29T12:14:23.704Z,3.40
2023-03-29T12:17:18.222Z,2.80
2023-03-29T12:20:16.710Z,2.70
2023-03-29T12:23:07.538Z,2.20
2023-03-29T12:26:02.423Z,2.20
2023-03-29T12:29:05.609Z,2.20
2023-03-29T12:31:59.303Z,2.30
2023-03-29T12:35:03.421Z,2.70
2023-03-29T12:38:16.859Z,3.30
2023-03-29T12:41:26.726Z,3.30
2023-03-29T12:44:36.291Z,2.50
2023-03-29T12:47:45.623Z,2.80
2023-03-29T12:50:38.093Z,2.40
2023-03-29T12:53:29.692Z,2.30
2023-03-29T12:56:23.729Z,2.90
2023-03-29T12:59:27.414Z,2.10
2023-03-29T13:02:39.385Z,2.20
2023-03-29T13:05:32.445Z,2.20
2023-03-29T13:08:34.093Z,2.00
2023-03-29T13:11:29.376Z,1.80
2023-03-29T13:14:20.588Z,2.00
2023-03-29T13:17:18.780Z,2.40
2023-03-29T13:23:16.935Z,2.20
2023-03-29T13:26:19.812Z,2.00
2023-03-29T13:29:38.306Z,2.10
2023-03-29T13:32:40.729Z,2.30
2023-03-29T13:35:35.468Z,2.10
2023-03-29T13:38:28.758Z,2.00
2023-03-29T13:41:32.636Z,1.90
2023-03-29T13:44:36.134Z,1.90
2023-03-29T13:47:43.229Z,2.30
2023-03-29T13:50:39.984Z,1.20
2023-03-29T13:53:32.366Z,2.20
2023-03-29T13:56:25.803Z,2.10
2023-03-29T13:59:19.998Z,2.60
2023-03-29T14:02:15.398Z,2.80
2023-03-29T14:05:06.637Z,3.00
2023-03-29T14:07:57.355Z,3.00
2023-03-29T14:10:48.535Z,1.60
2023-03-29T14:13:39.530Z,2.70
2023-03-29T14:16:31.501Z,2.80
2023-03-29T14:19:26.016Z,2.70
2023-03-29T14:22:19.085Z,2.80
2023-03-29T14:25:17.237Z,2.40
2023-03-29T14:28:21.920Z,2.20
2023-03-29T14:31:23.123Z,2.60
2023-03-29T14:34:16.722Z,2.70
2023-03-29T14:37:09.164Z,2.90
2023-03-29T14:40:00.686Z,3.10
2023-03-29T14:42:51.659Z,3.20
2023-03-29T14:45:42.044Z,3.40
2023-03-29T14:48:35.453Z,3.40
2023-03-29T14:51:30.542Z,3.50
2023-03-29T14:54:22.592Z,3.30
2023-03-29T14:57:18.611Z,3.90
2023-03-29T15:00:21.301Z,3.60
2023-03-29T15:03:16.459Z,3.00
2023-03-29T15:06:08.305Z,3.10
2023-03-29T15:09:07.993Z,3.00
2023-03-29T15:12:01.363Z,3.60
2023-03-29T15:14:53.063Z,4.10
2023-03-29T15:17:51.868Z,3.90
2023-03-29T15:20:46.172Z,6.80
2023-03-29T15:23:40.539Z,4.10
2023-03-29T15:26:33.916Z,4.00
2023-03-29T15:29:34.012Z,3.70
2023-03-29T15:32:25.335Z,3.90
2023-03-29T15:35:25.807Z,3.70
2023-03-29T15:38:16.481Z,3.90
2023-03-29T15:41:08.285Z,4.10
2023-03-29T15:43:58.896Z,4.20
2023-03-29T15:46:49.936Z,4.20
2023-03-29T15:49:40.666Z,4.00
2023-03-29T15:52:32.156Z,5.10
2023-03-29T15:55:23.084Z,4.90
2023-03-29T15:58:15.743Z,4.90
2023-03-29T16:01:13.391Z,4.90
2023-03-29T16:04:05.053Z,5.30
2023-03-29T16:06:56.756Z,5.90
2023-03-29T16:09:50.888Z,4.60
2023-03-29T16:12:41.662Z,4.90
2023-03-29T16:15:33.579Z,5.50
2023-03-29T16:18:24.520Z,5.30
2023-03-29T16:21:20.307Z,5.50
2023-03-29T16:24:13.408Z,5.20
2023-03-29T16:27:12.432Z,4.70
2023-03-29T16:30:06.261Z,4.60
2023-03-29T16:32:57.207Z,5.10
2023-03-29T16:35:48.388Z,4.50
2023-03-29T16:38:39.563Z,4.00
2023-03-29T16:41:31.678Z,3.80
2023-03-29T16:44:25.923Z,3.80
2023-03-29T16:47:17.753Z,4.50
2023-03-29T16:50:12.241Z,4.90
2023-03-29T16:53:03.283Z,5.00
2023-03-29T16:55:53.871Z,4.60
2023-03-29T16:58:44.739Z,4.90
2023-03-29T17:01:36.342Z,4.50
2023-03-29T17:04:27.293Z,4.70
2023-03-29T17:07:17.892Z,5.30
2023-03-29T17:10:09.857Z,5.30
2023-03-29T17:13:00.927Z,5.90
2023-03-29T17:15:52.509Z,5.40
2023-03-29T17:18:43.622Z,5.20
2023-03-29T17:21:34.396Z,5.70
2023-03-29T17:24:24.939Z,5.10
2023-03-29T17:27:15.481Z,5.20
2023-03-29T17:30:06.335Z,5.10
2023-03-29T17:32:57.684Z,6.40
2023-03-29T17:35:48.637Z,5.90
2023-03-29T17:38:39.327Z,6.50
2023-03-29T17:41:31.335Z,6.30
2023-03-29T17:44:22.242Z,7.10
2023-03-29T17:47:15.680Z,3.90
2023-03-29T17:50:06.849Z,7.50
2023-03-29T17:52:57.546Z,8.60
2023-03-29T17:55:48.167Z,9.30
2023-03-29T17:58:41.328Z,10.50
2023-03-29T18:01:33.523Z,11.00
2023-03-29T18:08:11.365Z,13.40
2023-03-29T18:11:09.921Z,14.20
2023-03-29T18:14:01.802Z,13.90
2023-03-29T18:16:52.251Z,6.90
2023-03-29T18:19:42.742Z,13.30
2023-03-29T18:22:34.280Z,14.10
2023-03-29T18:25:25.250Z,14.10
2023-03-29T18:28:15.939Z,14.60
2023-03-29T18:31:07.057Z,15.30
2023-03-29T18:33:57.803Z,15.10
2023-03-29T18:36:51.157Z,15.40
2023-03-29T18:39:43.048Z,15.30
2023-03-29T18:42:33.852Z,15.80
2023-03-29T18:45:24.558Z,15.70
2023-03-29T18:48:15.644Z,16.50
2023-03-29T18:51:07.499Z,16.20
2023-03-29T18:53:58.467Z,16.70
2023-03-29T18:56:48.901Z,17.00
2023-03-29T18:59:39.629Z,15.50
2023-03-29T19:02:30.809Z,17.10
2023-03-29T19:05:21.642Z,9.40
2023-03-29T19:08:13.368Z,9.90
2023-03-29T19:11:04.972Z,15.80
2023-03-29T19:13:55.213Z,17.60
2023-03-29T19:16:45.929Z,17.80
2023-03-29T19:19:37.810Z,17.40
2023-03-29T19:22:28.340Z,9.10
2023-03-29T19:25:19.137Z,17.60
2023-03-29T19:28:10.485Z,17.00
2023-03-29T19:31:02.289Z,17.60
2023-03-29T19:33:53.563Z,18.00
2023-03-29T19:36:44.139Z,17.40
2023-03-29T19:39:35.708Z,18.50
2023-03-29T19:42:26.692Z,18.10
2023-03-29T19:45:23.528Z,18.20
2023-03-29T19:48:21.773Z,18.50
2023-03-29T19:51:16.841Z,17.40
2023-03-29T19:54:07.991Z,16.40
2023-03-29T19:56:58.683Z,16.80
2023-03-29T19:59:49.141Z,17.10
2023-03-29T20:02:40.089Z,17.00
2023-03-29T20:05:30.381Z,17.20
2023-03-29T20:08:21.113Z,16.60
2023-03-29T20:11:11.802Z,8.80
2023-03-29T20:14:02.445Z,8.10
2023-03-29T20:16:54.160Z,14.60
2023-03-29T20:19:45.085Z,15.00
2023-03-29T20:22:38.096Z,14.60
2023-03-29T20:25:28.753Z,15.40
2023-03-29T20:28:19.783Z,15.50
2023-03-29T20:31:11.839Z,16.40
2023-03-29T20:34:02.637Z,6.70
2023-03-29T20:36:55.222Z,15.50
2023-03-29T20:39:46.301Z,7.10
2023-03-29T20:42:39.394Z,14.50
2023-03-29T20:45:33.220Z,14.90
2023-03-29T20:48:31.345Z,6.00
2023-03-29T20:51:21.575Z,13.60
2023-03-29T20:54:12.047Z,7.40
2023-03-29T20:57:02.411Z,7.70
2023-03-29T20:59:53.327Z,8.30
2023-03-29T21:02:44.263Z,7.50
2023-03-29T21:05:34.926Z,7.80
2023-03-29T21:08:28.899Z,14.50
2023-03-29T21:11:19.945Z,14.40
2023-03-29T21:14:10.605Z,7.30
2023-03-29T21:17:01.519Z,14.80
2023-03-29T21:19:53.213Z,8.30
2023-03-29T21:22:44.146Z,16.60
2023-03-29T21:25:34.770Z,16.00
2023-03-29T21:28:25.616Z,15.90
2023-03-29T21:31:16.142Z,8.40
2023-03-29T21:34:06.512Z,15.80
2023-03-29T21:36:57.278Z,9.50
2023-03-29T21:39:48.050Z,15.00
2023-03-29T21:42:38.871Z,7.90
2023-03-29T21:45:30.069Z,6.90
2023-03-29T21:48:20.739Z,13.70
2023-03-29T21:51:11.665Z,14.60
2023-03-29T21:54:02.357Z,15.10
2023-03-29T21:56:53.016Z,8.40
2023-03-29T21:59:43.583Z,7.80
2023-03-29T22:02:34.209Z,8.90
2023-03-29T22:05:26.131Z,15.20
2023-03-29T22:08:19.081Z,8.00
2023-03-29T22:11:10.993Z,8.40
2023-03-29T22:14:01.934Z,8.70
2023-03-29T22:16:52.757Z,15.50
2023-03-29T22:19:43.753Z,16.60
2023-03-29T22:22:35.153Z,8.80
2023-03-29T22:25:25.713Z,8.90
2023-03-29T22:28:16.395Z,8.60
2023-03-29T22:31:07.599Z,15.80
2023-03-29T22:34:00.717Z,17.10
2023-03-29T22:36:51.804Z,8.80
2023-03-29T22:39:42.396Z,9.50
2023-03-29T22:42:32.804Z,10.30
2023-03-29T22:45:23.682Z,15.80
2023-03-29T22:48:14.389Z,16.10
2023-03-29T22:51:05.689Z,15.60
2023-03-29T22:53:56.639Z,8.00
2023-03-29T22:56:47.159Z,8.50
2023-03-29T22:59:37.671Z,8.20
2023-03-29T23:02:28.546Z,15.60
2023-03-29T23:05:19.601Z,15.20
2023-03-29T23:08:10.421Z,7.00
2023-03-29T23:11:01.439Z,7.80
2023-03-29T23:13:52.664Z,7.80
2023-03-29T23:16:43.564Z,7.90
2023-03-29T23:19:34.069Z,13.90
2023-03-29T23:22:24.445Z,14.20
2023-03-29T23:25:15.068Z,7.30
2023-03-29T23:28:06.598Z,14.20
2023-03-29T23:31:02.912Z,14.10
2023-03-29T23:33:54.140Z,13.80
2023-03-29T23:36:44.600Z,8.10
2023-03-29T23:39:35.844Z,8.10
2023-03-29T23:42:26.712Z,13.30
2023-03-29T23:45:18.911Z,7.20
2023-03-29T23:48:09.794Z,7.40
2023-03-29T23:51:01.353Z,14.10
2023-03-29T23:53:52.374Z,14.90
2023-03-29T23:56:43.107Z,13.90
2023-03-29T23:59:37.749Z,14.10
